sensor_id;sensor_type;location;lat;lon;timestamp;temperature;humidity
2625;DHT22;1322;53.256;10.386;2023-05-29T00:00:05;14.60;99.90
2625;DHT22;1322;53.256;10.386;2023-05-29T00:02:33;14.50;99.90
2625;DHT22;1322;53.256;10.386;2023-05-29T00:04:59;14.40;99.90
2625;DHT22;1322;53.256;10.386;2023-05-29T00:07:31;14.40;99.90
2625;DHT22;1322;53.256;10.386;2023-05-29T00:09:58;14.30;99.90
2625;DHT22;1322;53.256;10.386;2023-05-29T00:12:24;14.20;99.90
2625;DHT22;1322;53.256;10.386;2023-05-29T00:14:50;14.10;99.90
2625;DHT22;1322;53.256;10.386;2023-05-29T00:17:16;14.10;99.90
2625;DHT22;1322;53.256;10.386;2023-05-29T00:19:43;14.10;99.90
2625;DHT22;1322;53.256;10.386;2023-05-29T00:22:08;14.10;99.90
2625;DHT22;1322;53.256;10.386;2023-05-29T00:24:34;14.00;99.90
2625;DHT22;1322;53.256;10.386;2023-05-29T00:27:00;14.00;99.90
2625;DHT22;1322;53.256;10.386;2023-05-29T00:29:26;14.00;99.90
2625;DHT22;1322;53.256;10.386;2023-05-29T00:31:53;13.90;99.90
2625;DHT22;1322;53.256;10.386;2023-05-29T00:34:19;13.90;99.90
2625;DHT22;1322;53.256;10.386;2023-05-29T00:36:45;13.90;99.90
2625;DHT22;1322;53.256;10.386;2023-05-29T00:39:11;13.80;99.90
2625;DHT22;1322;53.256;10.386;2023-05-29T00:41:37;13.80;99.90
2625;DHT22;1322;53.256;10.386;2023-05-29T00:44:03;13.70;99.90
2625;DHT22;1322;53.256;10.386;2023-05-29T00:46:29;13.70;99.90
2625;DHT22;1322;53.256;10.386;2023-05-29T00:48:55;13.70;99.90
2625;DHT22;1322;53.256;10.386;2023-05-29T00:51:21;13.80;99.90
2625;DHT22;1322;53.256;10.386;2023-05-29T00:53:48;13.80;99.90
2625;DHT22;1322;53.256;10.386;2023-05-29T00:56:14;13.80;99.90
2625;DHT22;1322;53.256;10.386;2023-05-29T00:58:40;13.70;99.90
2625;DHT22;1322;53.256;10.386;2023-05-29T01:01:07;13.60;99.90
2625;DHT22;1322;53.256;10.386;2023-05-29T01:03:32;13.50;99.90
2625;DHT22;1322;53.256;10.386;2023-05-29T01:05:58;13.30;99.90
2625;DHT22;1322;53.256;10.386;2023-05-29T01:08:24;13.30;99.90
2625;DHT22;1322;53.256;10.386;2023-05-29T01:10:51;13.20;99.90
2625;DHT22;1322;53.256;10.386;2023-05-29T01:13:23;13.10;99.90
2625;DHT22;1322;53.256;10.386;2023-05-29T01:16:09;13.00;99.90
2625;DHT22;1322;53.256;10.386;2023-05-29T01:18:54;12.90;99.90
2625;DHT22;1322;53.256;10.386;2023-05-29T01:24:37;12.90;99.90
2625;DHT22;1322;53.256;10.386;2023-05-29T01:27:05;12.90;99.90
2625;DHT22;1322;53.256;10.386;2023-05-29T01:29:34;12.90;99.90
2625;DHT22;1322;53.256;10.386;2023-05-29T01:32:01;12.80;99.90
2625;DHT22;1322;53.256;10.386;2023-05-29T01:34:30;12.80;99.90
2625;DHT22;1322;53.256;10.386;2023-05-29T01:36:56;12.70;99.90
2625;DHT22;1322;53.256;10.386;2023-05-29T01:39:23;12.70;99.90
2625;DHT22;1322;53.256;10.386;2023-05-29T01:41:49;12.70;99.90
2625;DHT22;1322;53.256;10.386;2023-05-29T01:44:16;12.70;99.90
2625;DHT22;1322;53.256;10.386;2023-05-29T01:46:43;12.70;99.90
2625;DHT22;1322;53.256;10.386;2023-05-29T01:49:11;12.70;99.90
2625;DHT22;1322;53.256;10.386;2023-05-29T01:51:39;12.70;99.90
2625;DHT22;1322;53.256;10.386;2023-05-29T01:54:06;12.70;99.90
2625;DHT22;1322;53.256;10.386;2023-05-29T01:56:32;12.70;99.90
2625;DHT22;1322;53.256;10.386;2023-05-29T01:58:59;12.70;99.90
2625;DHT22;1322;53.256;10.386;2023-05-29T02:01:26;12.70;99.90
2625;DHT22;1322;53.256;10.386;2023-05-29T02:03:52;12.70;99.90
2625;DHT22;1322;53.256;10.386;2023-05-29T02:06:17;12.70;99.90
2625;DHT22;1322;53.256;10.386;2023-05-29T02:08:43;12.70;99.90
2625;DHT22;1322;53.256;10.386;2023-05-29T02:11:09;12.70;99.90
2625;DHT22;1322;53.256;10.386;2023-05-29T02:13:34;12.60;99.90
2625;DHT22;1322;53.256;10.386;2023-05-29T02:16:00;12.70;99.90
2625;DHT22;1322;53.256;10.386;2023-05-29T02:18:26;12.70;99.90
2625;DHT22;1322;53.256;10.386;2023-05-29T02:20:51;12.80;99.90
2625;DHT22;1322;53.256;10.386;2023-05-29T02:23:17;12.80;99.90
2625;DHT22;1322;53.256;10.386;2023-05-29T02:25:45;12.90;99.90
2625;DHT22;1322;53.256;10.386;2023-05-29T02:28:11;12.90;99.90
2625;DHT22;1322;53.256;10.386;2023-05-29T02:30:37;12.90;99.90
2625;DHT22;1322;53.256;10.386;2023-05-29T02:33:03;12.90;99.90
2625;DHT22;1322;53.256;10.386;2023-05-29T02:35:28;12.80;99.90
2625;DHT22;1322;53.256;10.386;2023-05-29T02:37:54;12.70;99.90
2625;DHT22;1322;53.256;10.386;2023-05-29T02:40:20;12.60;99.90
2625;DHT22;1322;53.256;10.386;2023-05-29T02:42:46;12.50;99.90
2625;DHT22;1322;53.256;10.386;2023-05-29T02:45:12;12.50;99.90
2625;DHT22;1322;53.256;10.386;2023-05-29T02:47:38;12.40;99.90
2625;DHT22;1322;53.256;10.386;2023-05-29T02:50:04;12.40;99.90
2625;DHT22;1322;53.256;10.386;2023-05-29T02:52:32;12.40;99.90
2625;DHT22;1322;53.256;10.386;2023-05-29T02:54:57;12.40;99.90
2625;DHT22;1322;53.256;10.386;2023-05-29T02:57:24;12.30;99.90
2625;DHT22;1322;53.256;10.386;2023-05-29T02:59:50;12.30;99.90
2625;DHT22;1322;53.256;10.386;2023-05-29T03:02:17;12.20;99.90
2625;DHT22;1322;53.256;10.386;2023-05-29T03:04:43;12.10;99.90
2625;DHT22;1322;53.256;10.386;2023-05-29T03:07:09;12.00;99.90
2625;DHT22;1322;53.256;10.386;2023-05-29T03:09:35;11.90;99.90
2625;DHT22;1322;53.256;10.386;2023-05-29T03:12:01;11.90;99.90
2625;DHT22;1322;53.256;10.386;2023-05-29T03:14:27;11.80;99.90
2625;DHT22;1322;53.256;10.386;2023-05-29T03:16:53;11.80;99.90
2625;DHT22;1322;53.256;10.386;2023-05-29T03:19:19;11.80;99.90
2625;DHT22;1322;53.256;10.386;2023-05-29T03:21:45;11.80;99.90
2625;DHT22;1322;53.256;10.386;2023-05-29T03:24:11;11.80;99.90
2625;DHT22;1322;53.256;10.386;2023-05-29T03:26:39;11.80;99.90
2625;DHT22;1322;53.256;10.386;2023-05-29T03:29:04;11.80;99.90
2625;DHT22;1322;53.256;10.386;2023-05-29T03:31:31;11.70;99.90
2625;DHT22;1322;53.256;10.386;2023-05-29T03:33:57;11.70;99.90
2625;DHT22;1322;53.256;10.386;2023-05-29T03:36:22;11.70;99.90
2625;DHT22;1322;53.256;10.386;2023-05-29T03:38:48;11.70;99.90
2625;DHT22;1322;53.256;10.386;2023-05-29T03:41:14;11.70;99.90
2625;DHT22;1322;53.256;10.386;2023-05-29T03:43:39;11.80;99.90
2625;DHT22;1322;53.256;10.386;2023-05-29T03:46:05;11.70;99.90
2625;DHT22;1322;53.256;10.386;2023-05-29T03:48:31;11.80;99.90
2625;DHT22;1322;53.256;10.386;2023-05-29T03:50:56;11.80;99.90
2625;DHT22;1322;53.256;10.386;2023-05-29T03:53:22;11.90;99.90
2625;DHT22;1322;53.256;10.386;2023-05-29T03:55:47;11.80;99.90
2625;DHT22;1322;53.256;10.386;2023-05-29T03:58:13;11.90;99.90
2625;DHT22;1322;53.256;10.386;2023-05-29T04:00:39;11.90;99.90
2625;DHT22;1322;53.256;10.386;2023-05-29T04:03:05;12.00;99.90
2625;DHT22;1322;53.256;10.386;2023-05-29T04:05:31;12.10;99.90
2625;DHT22;1322;53.256;10.386;2023-05-29T04:07:57;12.20;99.90
2625;DHT22;1322;53.256;10.386;2023-05-29T04:10:22;12.40;99.90
2625;DHT22;1322;53.256;10.386;2023-05-29T04:12:49;12.40;99.90
2625;DHT22;1322;53.256;10.386;2023-05-29T04:15:15;12.50;99.90
2625;DHT22;1322;53.256;10.386;2023-05-29T04:17:40;12.50;99.90
2625;DHT22;1322;53.256;10.386;2023-05-29T04:20:06;12.60;99.90
2625;DHT22;1322;53.256;10.386;2023-05-29T04:22:37;12.60;99.90
2625;DHT22;1322;53.256;10.386;2023-05-29T04:25:03;12.70;99.90
2625;DHT22;1322;53.256;10.386;2023-05-29T04:27:30;12.90;99.90
2625;DHT22;1322;53.256;10.386;2023-05-29T04:29:57;12.90;99.90
2625;DHT22;1322;53.256;10.386;2023-05-29T04:32:23;13.00;99.90
2625;DHT22;1322;53.256;10.386;2023-05-29T04:34:49;13.10;99.90
2625;DHT22;1322;53.256;10.386;2023-05-29T04:37:16;13.20;99.90
2625;DHT22;1322;53.256;10.386;2023-05-29T04:39:42;13.20;99.90
2625;DHT22;1322;53.256;10.386;2023-05-29T04:42:08;13.40;99.90
2625;DHT22;1322;53.256;10.386;2023-05-29T04:44:34;13.50;99.90
2625;DHT22;1322;53.256;10.386;2023-05-29T04:47:00;13.50;99.90
2625;DHT22;1322;53.256;10.386;2023-05-29T04:49:29;13.60;99.90
2625;DHT22;1322;53.256;10.386;2023-05-29T04:51:54;13.60;99.90
2625;DHT22;1322;53.256;10.386;2023-05-29T04:54:22;13.50;99.90
2625;DHT22;1322;53.256;10.386;2023-05-29T04:56:48;13.40;99.90
2625;DHT22;1322;53.256;10.386;2023-05-29T04:59:13;13.60;99.90
2625;DHT22;1322;53.256;10.386;2023-05-29T05:01:39;13.60;99.90
2625;DHT22;1322;53.256;10.386;2023-05-29T05:04:08;13.50;99.90
2625;DHT22;1322;53.256;10.386;2023-05-29T05:06:34;13.60;99.90
2625;DHT22;1322;53.256;10.386;2023-05-29T05:08:59;13.50;99.90
2625;DHT22;1322;53.256;10.386;2023-05-29T05:11:26;13.60;99.90
2625;DHT22;1322;53.256;10.386;2023-05-29T05:13:51;13.60;99.90
2625;DHT22;1322;53.256;10.386;2023-05-29T05:16:17;13.70;99.90
2625;DHT22;1322;53.256;10.386;2023-05-29T05:18:43;13.80;99.90
2625;DHT22;1322;53.256;10.386;2023-05-29T05:21:09;13.90;99.90
2625;DHT22;1322;53.256;10.386;2023-05-29T05:23:35;14.10;99.90
2625;DHT22;1322;53.256;10.386;2023-05-29T05:26:01;14.20;99.90
2625;DHT22;1322;53.256;10.386;2023-05-29T05:28:27;14.30;99.90
2625;DHT22;1322;53.256;10.386;2023-05-29T05:30:52;14.20;99.90
2625;DHT22;1322;53.256;10.386;2023-05-29T05:33:18;14.30;99.90
2625;DHT22;1322;53.256;10.386;2023-05-29T05:35:43;14.30;99.90
2625;DHT22;1322;53.256;10.386;2023-05-29T05:38:09;14.50;99.90
2625;DHT22;1322;53.256;10.386;2023-05-29T05:40:35;14.60;99.90
2625;DHT22;1322;53.256;10.386;2023-05-29T05:43:00;14.80;99.90
2625;DHT22;1322;53.256;10.386;2023-05-29T05:45:26;15.00;99.90
2625;DHT22;1322;53.256;10.386;2023-05-29T05:47:52;15.00;99.90
2625;DHT22;1322;53.256;10.386;2023-05-29T05:50:17;15.00;99.90
2625;DHT22;1322;53.256;10.386;2023-05-29T05:52:43;15.10;99.90
2625;DHT22;1322;53.256;10.386;2023-05-29T05:55:09;15.20;99.90
2625;DHT22;1322;53.256;10.386;2023-05-29T05:57:34;15.30;99.90
2625;DHT22;1322;53.256;10.386;2023-05-29T06:00:02;15.30;99.90
2625;DHT22;1322;53.256;10.386;2023-05-29T06:02:31;15.30;99.90
2625;DHT22;1322;53.256;10.386;2023-05-29T06:04:57;15.40;99.90
2625;DHT22;1322;53.256;10.386;2023-05-29T06:07:22;15.40;99.90
2625;DHT22;1322;53.256;10.386;2023-05-29T06:09:48;15.60;99.90
2625;DHT22;1322;53.256;10.386;2023-05-29T06:12:14;15.70;99.90
2625;DHT22;1322;53.256;10.386;2023-05-29T06:14:41;15.80;99.90
2625;DHT22;1322;53.256;10.386;2023-05-29T06:17:06;15.90;99.90
2625;DHT22;1322;53.256;10.386;2023-05-29T06:19:32;16.00;99.90
2625;DHT22;1322;53.256;10.386;2023-05-29T06:21:57;16.10;99.90
2625;DHT22;1322;53.256;10.386;2023-05-29T06:24:23;16.20;99.90
2625;DHT22;1322;53.256;10.386;2023-05-29T06:26:49;16.20;99.90
2625;DHT22;1322;53.256;10.386;2023-05-29T06:29:15;16.50;99.90
2625;DHT22;1322;53.256;10.386;2023-05-29T06:31:41;16.40;99.90
2625;DHT22;1322;53.256;10.386;2023-05-29T06:34:06;16.50;99.90
2625;DHT22;1322;53.256;10.386;2023-05-29T06:36:32;16.70;99.90
2625;DHT22;1322;53.256;10.386;2023-05-29T06:38:58;16.80;99.90
2625;DHT22;1322;53.256;10.386;2023-05-29T06:41:23;16.90;99.90
2625;DHT22;1322;53.256;10.386;2023-05-29T06:43:49;17.00;99.90
2625;DHT22;1322;53.256;10.386;2023-05-29T06:46:15;17.00;99.90
2625;DHT22;1322;53.256;10.386;2023-05-29T06:48:40;16.90;99.90
2625;DHT22;1322;53.256;10.386;2023-05-29T06:51:06;17.00;99.90
2625;DHT22;1322;53.256;10.386;2023-05-29T06:53:37;17.20;99.90
2625;DHT22;1322;53.256;10.386;2023-05-29T06:56:04;17.40;99.90
2625;DHT22;1322;53.256;10.386;2023-05-29T06:58:30;17.30;99.90
2625;DHT22;1322;53.256;10.386;2023-05-29T07:00:56;17.30;99.90
2625;DHT22;1322;53.256;10.386;2023-05-29T07:03:23;17.30;99.90
2625;DHT22;1322;53.256;10.386;2023-05-29T07:05:49;17.30;99.90
2625;DHT22;1322;53.256;10.386;2023-05-29T07:08:14;17.30;99.90
2625;DHT22;1322;53.256;10.386;2023-05-29T07:10:40;17.40;99.90
2625;DHT22;1322;53.256;10.386;2023-05-29T07:13:06;17.40;99.90
2625;DHT22;1322;53.256;10.386;2023-05-29T07:15:32;17.40;99.90
2625;DHT22;1322;53.256;10.386;2023-05-29T07:17:58;17.70;99.90
2625;DHT22;1322;53.256;10.386;2023-05-29T07:20:24;18.00;99.90
2625;DHT22;1322;53.256;10.386;2023-05-29T07:22:49;18.10;99.90
2625;DHT22;1322;53.256;10.386;2023-05-29T07:25:15;18.10;99.90
2625;DHT22;1322;53.256;10.386;2023-05-29T07:27:41;18.40;99.90
2625;DHT22;1322;53.256;10.386;2023-05-29T07:30:07;18.30;99.90
2625;DHT22;1322;53.256;10.386;2023-05-29T07:32:33;18.30;99.90
2625;DHT22;1322;53.256;10.386;2023-05-29T07:34:59;18.20;99.90
2625;DHT22;1322;53.256;10.386;2023-05-29T07:37:24;18.10;99.90
2625;DHT22;1322;53.256;10.386;2023-05-29T07:39:50;18.20;99.90
2625;DHT22;1322;53.256;10.386;2023-05-29T07:42:15;18.30;99.90
2625;DHT22;1322;53.256;10.386;2023-05-29T07:44:42;18.30;99.90
2625;DHT22;1322;53.256;10.386;2023-05-29T07:47:08;18.20;99.90
2625;DHT22;1322;53.256;10.386;2023-05-29T07:49:34;18.30;99.90
2625;DHT22;1322;53.256;10.386;2023-05-29T07:52:01;18.20;99.90
2625;DHT22;1322;53.256;10.386;2023-05-29T07:54:27;18.00;99.90
2625;DHT22;1322;53.256;10.386;2023-05-29T07:56:53;18.00;99.90
2625;DHT22;1322;53.256;10.386;2023-05-29T07:59:18;17.90;99.90
2625;DHT22;1322;53.256;10.386;2023-05-29T08:01:44;18.00;99.90
2625;DHT22;1322;53.256;10.386;2023-05-29T08:04:09;18.00;99.90
2625;DHT22;1322;53.256;10.386;2023-05-29T08:06:36;17.90;99.90
2625;DHT22;1322;53.256;10.386;2023-05-29T08:09:02;17.60;99.90
2625;DHT22;1322;53.256;10.386;2023-05-29T08:11:28;17.40;99.90
2625;DHT22;1322;53.256;10.386;2023-05-29T08:13:54;17.30;99.90
2625;DHT22;1322;53.256;10.386;2023-05-29T08:16:20;17.40;99.90
2625;DHT22;1322;53.256;10.386;2023-05-29T08:18:47;17.40;99.90
2625;DHT22;1322;53.256;10.386;2023-05-29T08:21:13;17.30;99.90
2625;DHT22;1322;53.256;10.386;2023-05-29T08:23:39;17.40;99.90
2625;DHT22;1322;53.256;10.386;2023-05-29T08:26:07;17.30;99.90
2625;DHT22;1322;53.256;10.386;2023-05-29T08:28:32;17.30;99.90
2625;DHT22;1322;53.256;10.386;2023-05-29T08:30:59;17.50;99.90
2625;DHT22;1322;53.256;10.386;2023-05-29T08:33:27;17.60;99.90
2625;DHT22;1322;53.256;10.386;2023-05-29T08:35:53;17.60;99.90
2625;DHT22;1322;53.256;10.386;2023-05-29T08:38:19;17.60;99.90
2625;DHT22;1322;53.256;10.386;2023-05-29T08:40:48;17.60;99.90
2625;DHT22;1322;53.256;10.386;2023-05-29T08:43:21;17.50;99.90
2625;DHT22;1322;53.256;10.386;2023-05-29T08:45:52;17.30;99.90
2625;DHT22;1322;53.256;10.386;2023-05-29T08:48:20;17.50;99.90
2625;DHT22;1322;53.256;10.386;2023-05-29T08:50:53;17.50;99.90
2625;DHT22;1322;53.256;10.386;2023-05-29T08:53:23;17.60;99.90
2625;DHT22;1322;53.256;10.386;2023-05-29T08:55:52;17.80;99.90
2625;DHT22;1322;53.256;10.386;2023-05-29T08:58:22;17.90;99.90
2625;DHT22;1322;53.256;10.386;2023-05-29T09:00:49;17.80;99.90
2625;DHT22;1322;53.256;10.386;2023-05-29T09:03:15;17.70;99.90
2625;DHT22;1322;53.256;10.386;2023-05-29T09:05:43;17.60;99.90
2625;DHT22;1322;53.256;10.386;2023-05-29T09:08:11;17.60;99.90
2625;DHT22;1322;53.256;10.386;2023-05-29T09:10:44;17.70;99.90
2625;DHT22;1322;53.256;10.386;2023-05-29T09:13:11;17.80;99.90
2625;DHT22;1322;53.256;10.386;2023-05-29T09:15:39;17.80;99.90
2625;DHT22;1322;53.256;10.386;2023-05-29T09:18:08;17.80;99.90
2625;DHT22;1322;53.256;10.386;2023-05-29T09:20:36;17.80;99.90
2625;DHT22;1322;53.256;10.386;2023-05-29T09:23:09;17.80;99.90
2625;DHT22;1322;53.256;10.386;2023-05-29T09:25:41;18.00;99.90
2625;DHT22;1322;53.256;10.386;2023-05-29T09:28:11;18.10;99.90
2625;DHT22;1322;53.256;10.386;2023-05-29T09:30:45;18.20;99.90
2625;DHT22;1322;53.256;10.386;2023-05-29T09:33:15;18.30;99.90
2625;DHT22;1322;53.256;10.386;2023-05-29T09:35:48;18.50;99.90
2625;DHT22;1322;53.256;10.386;2023-05-29T09:38:16;18.60;99.90
2625;DHT22;1322;53.256;10.386;2023-05-29T09:40:43;18.60;99.90
2625;DHT22;1322;53.256;10.386;2023-05-29T09:43:11;18.60;99.90
2625;DHT22;1322;53.256;10.386;2023-05-29T09:45:41;18.50;99.90
2625;DHT22;1322;53.256;10.386;2023-05-29T09:48:18;18.40;99.90
2625;DHT22;1322;53.256;10.386;2023-05-29T09:50:45;18.50;99.90
2625;DHT22;1322;53.256;10.386;2023-05-29T09:53:21;18.40;99.90
2625;DHT22;1322;53.256;10.386;2023-05-29T09:55:48;18.30;99.90
2625;DHT22;1322;53.256;10.386;2023-05-29T09:58:15;18.30;99.90
2625;DHT22;1322;53.256;10.386;2023-05-29T10:00:42;18.50;99.90
2625;DHT22;1322;53.256;10.386;2023-05-29T10:03:10;18.70;99.90
2625;DHT22;1322;53.256;10.386;2023-05-29T10:05:46;18.80;99.90
2625;DHT22;1322;53.256;10.386;2023-05-29T10:08:15;18.90;99.90
2625;DHT22;1322;53.256;10.386;2023-05-29T10:10:43;19.00;99.90
2625;DHT22;1322;53.256;10.386;2023-05-29T10:13:11;19.00;99.90
2625;DHT22;1322;53.256;10.386;2023-05-29T10:15:37;18.90;99.90
2625;DHT22;1322;53.256;10.386;2023-05-29T10:18:13;19.00;99.90
2625;DHT22;1322;53.256;10.386;2023-05-29T10:20:43;19.10;99.90
2625;DHT22;1322;53.256;10.386;2023-05-29T10:23:11;19.00;99.90
2625;DHT22;1322;53.256;10.386;2023-05-29T10:25:40;19.00;99.90
2625;DHT22;1322;53.256;10.386;2023-05-29T10:28:11;19.20;99.90
2625;DHT22;1322;53.256;10.386;2023-05-29T10:31:08;18.90;99.90
2625;DHT22;1322;53.256;10.386;2023-05-29T10:36:20;19.00;99.90
2625;DHT22;1322;53.256;10.386;2023-05-29T10:38:50;19.00;99.90
2625;DHT22;1322;53.256;10.386;2023-05-29T10:43:57;19.20;99.90
2625;DHT22;1322;53.256;10.386;2023-05-29T10:51:42;18.90;99.90
2625;DHT22;1322;53.256;10.386;2023-05-29T10:54:08;18.90;99.90
2625;DHT22;1322;53.256;10.386;2023-05-29T10:56:34;18.90;99.90
2625;DHT22;1322;53.256;10.386;2023-05-29T10:59:00;18.90;99.90
2625;DHT22;1322;53.256;10.386;2023-05-29T11:01:30;19.10;99.90
2625;DHT22;1322;53.256;10.386;2023-05-29T11:06:43;19.20;99.90
2625;DHT22;1322;53.256;10.386;2023-05-29T11:09:29;19.20;99.90
2625;DHT22;1322;53.256;10.386;2023-05-29T11:12:17;19.30;99.90
2625;DHT22;1322;53.256;10.386;2023-05-29T11:15:07;19.20;99.90
2625;DHT22;1322;53.256;10.386;2023-05-29T11:17:43;19.30;99.90
2625;DHT22;1322;53.256;10.386;2023-05-29T11:20:49;19.20;99.90
2625;DHT22;1322;53.256;10.386;2023-05-29T11:23:17;19.10;99.90
2625;DHT22;1322;53.256;10.386;2023-05-29T11:25:45;19.10;99.90
2625;DHT22;1322;53.256;10.386;2023-05-29T11:28:12;19.20;99.90
2625;DHT22;1322;53.256;10.386;2023-05-29T11:30:48;19.20;99.90
2625;DHT22;1322;53.256;10.386;2023-05-29T11:33:32;19.30;99.90
2625;DHT22;1322;53.256;10.386;2023-05-29T11:36:00;19.20;99.90
2625;DHT22;1322;53.256;10.386;2023-05-29T11:38:27;19.20;99.90
2625;DHT22;1322;53.256;10.386;2023-05-29T11:40:56;19.30;99.90
2625;DHT22;1322;53.256;10.386;2023-05-29T11:43:24;19.30;99.90
2625;DHT22;1322;53.256;10.386;2023-05-29T11:45:50;19.50;99.90
2625;DHT22;1322;53.256;10.386;2023-05-29T11:48:15;19.50;99.90
2625;DHT22;1322;53.256;10.386;2023-05-29T11:50:41;19.60;99.90
2625;DHT22;1322;53.256;10.386;2023-05-29T11:53:07;19.50;99.90
2625;DHT22;1322;53.256;10.386;2023-05-29T11:55:36;19.30;99.90
2625;DHT22;1322;53.256;10.386;2023-05-29T11:58:03;19.30;99.90
2625;DHT22;1322;53.256;10.386;2023-05-29T12:00:36;19.40;99.90
2625;DHT22;1322;53.256;10.386;2023-05-29T12:03:03;19.40;99.90
2625;DHT22;1322;53.256;10.386;2023-05-29T12:05:30;19.50;99.90
2625;DHT22;1322;53.256;10.386;2023-05-29T12:07:57;19.60;99.90
2625;DHT22;1322;53.256;10.386;2023-05-29T12:10:23;19.70;99.90
2625;DHT22;1322;53.256;10.386;2023-05-29T12:12:59;19.70;99.90
2625;DHT22;1322;53.256;10.386;2023-05-29T12:15:26;19.80;99.90
2625;DHT22;1322;53.256;10.386;2023-05-29T12:17:52;19.90;99.90
2625;DHT22;1322;53.256;10.386;2023-05-29T12:20:19;19.90;99.90
2625;DHT22;1322;53.256;10.386;2023-05-29T12:22:47;19.90;99.90
2625;DHT22;1322;53.256;10.386;2023-05-29T12:25:17;19.90;99.90
2625;DHT22;1322;53.256;10.386;2023-05-29T12:27:44;19.80;99.90
2625;DHT22;1322;53.256;10.386;2023-05-29T12:30:21;19.70;99.90
2625;DHT22;1322;53.256;10.386;2023-05-29T12:32:49;19.60;99.90
2625;DHT22;1322;53.256;10.386;2023-05-29T12:35:23;19.70;99.90
2625;DHT22;1322;53.256;10.386;2023-05-29T12:37:54;19.70;99.90
2625;DHT22;1322;53.256;10.386;2023-05-29T12:40:24;19.70;99.90
2625;DHT22;1322;53.256;10.386;2023-05-29T12:43:01;19.60;99.90
2625;DHT22;1322;53.256;10.386;2023-05-29T12:45:30;19.50;99.90
2625;DHT22;1322;53.256;10.386;2023-05-29T12:48:00;19.50;99.90
2625;DHT22;1322;53.256;10.386;2023-05-29T12:50:37;19.60;99.90
2625;DHT22;1322;53.256;10.386;2023-05-29T12:53:11;19.70;99.90
2625;DHT22;1322;53.256;10.386;2023-05-29T12:55:41;19.60;99.90
2625;DHT22;1322;53.256;10.386;2023-05-29T12:58:11;19.60;99.90
2625;DHT22;1322;53.256;10.386;2023-05-29T13:00:39;19.70;99.90
2625;DHT22;1322;53.256;10.386;2023-05-29T13:03:06;19.70;99.90
2625;DHT22;1322;53.256;10.386;2023-05-29T13:05:31;19.70;99.70
2625;DHT22;1322;53.256;10.386;2023-05-29T13:07:57;19.70;99.90
2625;DHT22;1322;53.256;10.386;2023-05-29T13:10:25;19.70;99.90
2625;DHT22;1322;53.256;10.386;2023-05-29T13:12:52;19.80;99.90
2625;DHT22;1322;53.256;10.386;2023-05-29T13:15:24;19.80;99.10
2625;DHT22;1322;53.256;10.386;2023-05-29T13:17:52;19.70;99.90
2625;DHT22;1322;53.256;10.386;2023-05-29T13:20:19;19.70;99.90
2625;DHT22;1322;53.256;10.386;2023-05-29T13:22:46;19.80;99.70
2625;DHT22;1322;53.256;10.386;2023-05-29T13:25:14;19.80;99.80
2625;DHT22;1322;53.256;10.386;2023-05-29T13:27:42;19.90;99.90
2625;DHT22;1322;53.256;10.386;2023-05-29T13:30:12;19.90;99.90
2625;DHT22;1322;53.256;10.386;2023-05-29T13:32:38;19.90;99.90
2625;DHT22;1322;53.256;10.386;2023-05-29T13:35:04;19.90;99.90
2625;DHT22;1322;53.256;10.386;2023-05-29T13:37:31;20.00;99.90
2625;DHT22;1322;53.256;10.386;2023-05-29T13:39:57;20.10;99.90
2625;DHT22;1322;53.256;10.386;2023-05-29T13:42:22;20.20;99.90
2625;DHT22;1322;53.256;10.386;2023-05-29T13:44:49;20.20;99.90
2625;DHT22;1322;53.256;10.386;2023-05-29T13:47:15;20.30;99.90
2625;DHT22;1322;53.256;10.386;2023-05-29T13:49:41;20.40;99.90
2625;DHT22;1322;53.256;10.386;2023-05-29T13:52:07;20.50;99.90
2625;DHT22;1322;53.256;10.386;2023-05-29T13:54:33;20.50;99.50
2625;DHT22;1322;53.256;10.386;2023-05-29T13:57:05;20.40;98.30
2625;DHT22;1322;53.256;10.386;2023-05-29T13:59:35;20.40;98.40
2625;DHT22;1322;53.256;10.386;2023-05-29T14:02:01;20.40;99.00
2625;DHT22;1322;53.256;10.386;2023-05-29T14:04:28;20.60;99.90
2625;DHT22;1322;53.256;10.386;2023-05-29T14:06:54;20.60;99.00
2625;DHT22;1322;53.256;10.386;2023-05-29T14:09:21;20.70;99.70
2625;DHT22;1322;53.256;10.386;2023-05-29T14:11:58;20.80;98.70
2625;DHT22;1322;53.256;10.386;2023-05-29T14:14:24;20.70;98.20
2625;DHT22;1322;53.256;10.386;2023-05-29T14:16:50;20.60;99.00
2625;DHT22;1322;53.256;10.386;2023-05-29T14:19:17;20.70;99.10
2625;DHT22;1322;53.256;10.386;2023-05-29T14:21:43;20.70;98.50
2625;DHT22;1322;53.256;10.386;2023-05-29T14:24:09;20.70;98.10
2625;DHT22;1322;53.256;10.386;2023-05-29T14:26:34;20.60;97.60
2625;DHT22;1322;53.256;10.386;2023-05-29T14:29:01;20.50;98.30
2625;DHT22;1322;53.256;10.386;2023-05-29T14:31:26;20.50;98.70
2625;DHT22;1322;53.256;10.386;2023-05-29T14:33:52;20.70;99.00
2625;DHT22;1322;53.256;10.386;2023-05-29T14:36:17;20.70;99.00
2625;DHT22;1322;53.256;10.386;2023-05-29T14:38:43;20.80;99.20
2625;DHT22;1322;53.256;10.386;2023-05-29T14:41:10;20.90;99.60
2625;DHT22;1322;53.256;10.386;2023-05-29T14:43:37;21.00;98.50
2625;DHT22;1322;53.256;10.386;2023-05-29T14:46:03;21.00;99.00
2625;DHT22;1322;53.256;10.386;2023-05-29T14:48:29;20.90;99.90
2625;DHT22;1322;53.256;10.386;2023-05-29T14:50:55;20.80;97.60
2625;DHT22;1322;53.256;10.386;2023-05-29T14:53:20;20.80;98.90
2625;DHT22;1322;53.256;10.386;2023-05-29T14:55:48;20.80;98.40
2625;DHT22;1322;53.256;10.386;2023-05-29T14:58:14;20.60;97.60
2625;DHT22;1322;53.256;10.386;2023-05-29T15:00:40;20.70;98.20
2625;DHT22;1322;53.256;10.386;2023-05-29T15:03:05;20.70;98.80
2625;DHT22;1322;53.256;10.386;2023-05-29T15:05:31;20.70;98.70
2625;DHT22;1322;53.256;10.386;2023-05-29T15:07:56;20.80;99.20
2625;DHT22;1322;53.256;10.386;2023-05-29T15:10:28;20.80;99.80
2625;DHT22;1322;53.256;10.386;2023-05-29T15:12:54;20.80;99.50
2625;DHT22;1322;53.256;10.386;2023-05-29T15:15:31;20.70;99.50
2625;DHT22;1322;53.256;10.386;2023-05-29T15:17:56;20.80;99.90
2625;DHT22;1322;53.256;10.386;2023-05-29T15:20:24;20.80;99.50
2625;DHT22;1322;53.256;10.386;2023-05-29T15:22:50;20.80;99.90
2625;DHT22;1322;53.256;10.386;2023-05-29T15:25:17;20.70;99.90
2625;DHT22;1322;53.256;10.386;2023-05-29T15:27:43;20.60;99.80
2625;DHT22;1322;53.256;10.386;2023-05-29T15:32:35;20.70;99.50
2625;DHT22;1322;53.256;10.386;2023-05-29T15:35:01;20.70;99.90
2625;DHT22;1322;53.256;10.386;2023-05-29T15:37:27;20.80;99.90
2625;DHT22;1322;53.256;10.386;2023-05-29T15:39:55;20.90;99.90
2625;DHT22;1322;53.256;10.386;2023-05-29T15:42:21;20.90;99.00
2625;DHT22;1322;53.256;10.386;2023-05-29T15:44:47;20.80;99.40
2625;DHT22;1322;53.256;10.386;2023-05-29T15:47:12;20.80;99.90
2625;DHT22;1322;53.256;10.386;2023-05-29T15:49:38;20.80;99.90
2625;DHT22;1322;53.256;10.386;2023-05-29T15:52:04;20.80;99.90
2625;DHT22;1322;53.256;10.386;2023-05-29T15:54:29;20.80;99.90
2625;DHT22;1322;53.256;10.386;2023-05-29T15:56:55;20.90;99.90
2625;DHT22;1322;53.256;10.386;2023-05-29T15:59:21;20.90;99.90
2625;DHT22;1322;53.256;10.386;2023-05-29T16:01:46;20.90;99.90
2625;DHT22;1322;53.256;10.386;2023-05-29T16:04:12;20.90;99.90